sensor_id;sensor_type;location;lat;lon;timestamp;pressure;altitude;pressure_sealevel;temperature;humidity
27358;BME280;14831;50.474;7.616;2023-01-25T00:01:58;99850;;;-0.9;98.9
27358;BME280;14831;50.474;7.616;2023-01-25T00:06:58;99840;;;-0.9;98.9
27358;BME280;14831;50.474;7.616;2023-01-25T00:11:58;99850;;;-0.9;99.0
27358;BME280;14831;50.474;7.616;2023-01-25T00:16:58;99850;;;-0.9;99.1
27358;BME280;14831;50.474;7.616;2023-01-25T00:21:58;99830;;;-0.9;99.1
27358;BME280;14831;50.474;7.616;2023-01-25T00:26:58;99830;;;-0.9;99.2
27358;BME280;14831;50.474;7.616;2023-01-25T00:32:01;99820;;;-0.8;99.2
27358;BME280;14831;50.474;7.616;2023-01-25T00:37:00;99820;;;-0.8;99.2
27358;BME280;14831;50.474;7.616;2023-01-25T00:41:58;99830;;;-0.9;99.3
27358;BME280;14831;50.474;7.616;2023-01-25T00:46:58;99820;;;-0.9;99.5
27358;BME280;14831;50.474;7.616;2023-01-25T00:51:58;99820;;;-0.9;99.5
27358;BME280;14831;50.474;7.616;2023-01-25T00:56:58;99810;;;-0.9;99.7
27358;BME280;14831;50.474;7.616;2023-01-25T01:01:58;99810;;;-0.9;99.9
27358;BME280;14831;50.474;7.616;2023-01-25T01:06:58;99800;;;-1.0;100.0
27358;BME280;14831;50.474;7.616;2023-01-25T01:11:59;99800;;;-0.9;100.0
27358;BME280;14831;50.474;7.616;2023-01-25T01:16:58;99800;;;-1.0;100.0
27358;BME280;14831;50.474;7.616;2023-01-25T01:21:58;99800;;;-1.0;100.0
27358;BME280;14831;50.474;7.616;2023-01-25T01:26:58;99810;;;-1.0;100.0
27358;BME280;14831;50.474;7.616;2023-01-25T01:31:58;99790;;;-1.0;100.0
27358;BME280;14831;50.474;7.616;2023-01-25T01:36:58;99800;;;-1.0;100.0
27358;BME280;14831;50.474;7.616;2023-01-25T01:41:58;99790;;;-0.9;100.0
27358;BME280;14831;50.474;7.616;2023-01-25T01:46:58;99800;;;-0.9;100.0
27358;BME280;14831;50.474;7.616;2023-01-25T01:51:59;99800;;;-1.0;100.0
27358;BME280;14831;50.474;7.616;2023-01-25T01:56:59;99790;;;-1.0;100.0
27358;BME280;14831;50.474;7.616;2023-01-25T02:01:58;99800;;;-1.0;100.0
27358;BME280;14831;50.474;7.616;2023-01-25T02:06:59;99780;;;-1.0;100.0
27358;BME280;14831;50.474;7.616;2023-01-25T02:11:58;99790;;;-1.0;100.0
27358;BME280;14831;50.474;7.616;2023-01-25T02:16:58;99790;;;-1.0;100.0
27358;BME280;14831;50.474;7.616;2023-01-25T02:21:58;99790;;;-0.9;100.0
27358;BME280;14831;50.474;7.616;2023-01-25T02:26:58;99800;;;-1.0;100.0
27358;BME280;14831;50.474;7.616;2023-01-25T02:31:58;99780;;;-1.0;100.0
27358;BME280;14831;50.474;7.616;2023-01-25T02:36:58;99770;;;-1.0;100.0
27358;BME280;14831;50.474;7.616;2023-01-25T02:41:58;99780;;;-1.0;100.0
27358;BME280;14831;50.474;7.616;2023-01-25T02:46:58;99770;;;-1.0;100.0
27358;BME280;14831;50.474;7.616;2023-01-25T02:51:58;99770;;;-1.0;100.0
27358;BME280;14831;50.474;7.616;2023-01-25T02:56:58;99770;;;-1.0;100.0
27358;BME280;14831;50.474;7.616;2023-01-25T03:01:58;99770;;;-1.0;100.0
27358;BME280;14831;50.474;7.616;2023-01-25T03:06:58;99770;;;-1.0;100.0
27358;BME280;14831;50.474;7.616;2023-01-25T03:11:58;99760;;;-1.0;100.0
27358;BME280;14831;50.474;7.616;2023-01-25T03:16:58;99750;;;-1.0;100.0
27358;BME280;14831;50.474;7.616;2023-01-25T03:21:58;99750;;;-1.0;100.0
27358;BME280;14831;50.474;7.616;2023-01-25T03:26:58;99750;;;-1.1;100.0
27358;BME280;14831;50.474;7.616;2023-01-25T03:31:58;99750;;;-1.0;100.0
27358;BME280;14831;50.474;7.616;2023-01-25T03:36:58;99740;;;-1.0;100.0
27358;BME280;14831;50.474;7.616;2023-01-25T03:41:58;99740;;;-1.0;100.0
27358;BME280;14831;50.474;7.616;2023-01-25T03:46:58;99740;;;-1.1;100.0
27358;BME280;14831;50.474;7.616;2023-01-25T03:51:58;99750;;;-1.1;100.0
27358;BME280;14831;50.474;7.616;2023-01-25T03:56:58;99740;;;-1.1;100.0
27358;BME280;14831;50.474;7.616;2023-01-25T04:01:58;99740;;;-1.0;100.0
27358;BME280;14831;50.474;7.616;2023-01-25T04:06:58;99730;;;-1.0;100.0
27358;BME280;14831;50.474;7.616;2023-01-25T04:11:58;99730;;;-1.0;100.0
27358;BME280;14831;50.474;7.616;2023-01-25T04:16:58;99720;;;-1.0;100.0
27358;BME280;14831;50.474;7.616;2023-01-25T04:21:58;99710;;;-1.0;100.0
27358;BME280;14831;50.474;7.616;2023-01-25T04:26:58;99720;;;-1.0;100.0
27358;BME280;14831;50.474;7.616;2023-01-25T04:31:58;99710;;;-1.0;100.0
27358;BME280;14831;50.474;7.616;2023-01-25T04:36:58;99700;;;-1.0;100.0
27358;BME280;14831;50.474;7.616;2023-01-25T04:41:58;99710;;;-1.1;100.0
27358;BME280;14831;50.474;7.616;2023-01-25T04:46:58;99710;;;-1.1;100.0
27358;BME280;14831;50.474;7.616;2023-01-25T04:51:58;99700;;;-1.1;100.0
27358;BME280;14831;50.474;7.616;2023-01-25T04:56:58;99700;;;-1.2;100.0
27358;BME280;14831;50.474;7.616;2023-01-25T05:01:58;99700;;;-1.3;100.0
27358;BME280;14831;50.474;7.616;2023-01-25T05:06:58;99690;;;-1.3;100.0
27358;BME280;14831;50.474;7.616;2023-01-25T05:11:58;99700;;;-1.3;100.0
27358;BME280;14831;50.474;7.616;2023-01-25T05:16:58;99680;;;-1.3;100.0
27358;BME280;14831;50.474;7.616;2023-01-25T05:21:58;99680;;;-1.3;100.0
27358;BME280;14831;50.474;7.616;2023-01-25T05:26:59;99680;;;-1.3;100.0
27358;BME280;14831;50.474;7.616;2023-01-25T05:31:58;99680;;;-1.4;100.0
27358;BME280;14831;50.474;7.616;2023-01-25T05:36:58;99670;;;-1.4;100.0
27358;BME280;14831;50.474;7.616;2023-01-25T05:41:58;99670;;;-1.4;100.0
27358;BME280;14831;50.474;7.616;2023-01-25T05:46:58;99650;;;-1.4;100.0
27358;BME280;14831;50.474;7.616;2023-01-25T05:51:58;99650;;;-1.3;100.0
27358;BME280;14831;50.474;7.616;2023-01-25T05:56:58;99660;;;-1.2;100.0
27358;BME280;14831;50.474;7.616;2023-01-25T06:01:58;99670;;;-1.2;100.0
27358;BME280;14831;50.474;7.616;2023-01-25T06:06:58;99650;;;-1.3;100.0
27358;BME280;14831;50.474;7.616;2023-01-25T06:11:58;99650;;;-1.3;100.0
27358;BME280;14831;50.474;7.616;2023-01-25T06:16:58;99650;;;-1.2;100.0
27358;BME280;14831;50.474;7.616;2023-01-25T06:21:58;99650;;;-1.2;100.0
27358;BME280;14831;50.474;7.616;2023-01-25T06:26:58;99640;;;-1.2;100.0
27358;BME280;14831;50.474;7.616;2023-01-25T06:31:58;99640;;;-1.2;100.0
27358;BME280;14831;50.474;7.616;2023-01-25T06:36:58;99650;;;-1.2;100.0
27358;BME280;14831;50.474;7.616;2023-01-25T06:41:58;99650;;;-1.2;100.0
27358;BME280;14831;50.474;7.616;2023-01-25T06:46:58;99650;;;-1.3;100.0
27358;BME280;14831;50.474;7.616;2023-01-25T06:51:58;99640;;;-1.3;100.0
27358;BME280;14831;50.474;7.616;2023-01-25T06:56:58;99640;;;-1.2;100.0
27358;BME280;14831;50.474;7.616;2023-01-25T07:01:58;99630;;;-1.2;100.0
27358;BME280;14831;50.474;7.616;2023-01-25T07:06:58;99640;;;-1.2;100.0
27358;BME280;14831;50.474;7.616;2023-01-25T07:11:58;99640;;;-1.2;100.0
27358;BME280;14831;50.474;7.616;2023-01-25T07:16:58;99640;;;-1.2;100.0
27358;BME280;14831;50.474;7.616;2023-01-25T07:21:58;99640;;;-1.2;100.0
27358;BME280;14831;50.474;7.616;2023-01-25T07:26:58;99640;;;-1.2;100.0
27358;BME280;14831;50.474;7.616;2023-01-25T07:31:58;99640;;;-1.3;100.0
27358;BME280;14831;50.474;7.616;2023-01-25T07:36:58;99630;;;-1.3;100.0
27358;BME280;14831;50.474;7.616;2023-01-25T07:41:58;99640;;;-1.4;100.0
27358;BME280;14831;50.474;7.616;2023-01-25T07:46:58;99630;;;-1.4;100.0
27358;BME280;14831;50.474;7.616;2023-01-25T07:51:58;99630;;;-1.4;100.0
27358;BME280;14831;50.474;7.616;2023-01-25T07:56:58;99630;;;-1.3;100.0
27358;BME280;14831;50.474;7.616;2023-01-25T08:01:58;99640;;;-1.3;100.0
27358;BME280;14831;50.474;7.616;2023-01-25T08:06:58;99650;;;-1.2;100.0
27358;BME280;14831;50.474;7.616;2023-01-25T08:11:58;99640;;;-1.2;100.0
27358;BME280;14831;50.474;7.616;2023-01-25T08:16:58;99650;;;-1.2;100.0
27358;BME280;14831;50.474;7.616;2023-01-25T08:21:58;99640;;;-1.1;100.0
27358;BME280;14831;50.474;7.616;2023-01-25T08:26:58;99640;;;-1.1;100.0
27358;BME280;14831;50.474;7.616;2023-01-25T08:31:58;99630;;;-1.1;100.0
27358;BME280;14831;50.474;7.616;2023-01-25T08:36:58;99630;;;-1.1;100.0
27358;BME280;14831;50.474;7.616;2023-01-25T08:41:58;99640;;;-1.1;100.0
27358;BME280;14831;50.474;7.616;2023-01-25T08:46:58;99630;;;-1.1;100.0
27358;BME280;14831;50.474;7.616;2023-01-25T08:51:58;99640;;;-1.1;100.0
27358;BME280;14831;50.474;7.616;2023-01-25T08:56:59;99640;;;-1.1;100.0
27358;BME280;14831;50.474;7.616;2023-01-25T09:01:58;99630;;;-1.0;100.0
27358;BME280;14831;50.474;7.616;2023-01-25T09:06:58;99630;;;-0.9;100.0
27358;BME280;14831;50.474;7.616;2023-01-25T09:11:58;99620;;;-1.1;100.0
27358;BME280;14831;50.474;7.616;2023-01-25T09:16:58;99620;;;-1.0;100.0
27358;BME280;14831;50.474;7.616;2023-01-25T09:21:58;99600;;;-1.0;100.0
27358;BME280;14831;50.474;7.616;2023-01-25T09:26:58;99600;;;-1.0;100.0
27358;BME280;14831;50.474;7.616;2023-01-25T09:31:58;99600;;;-1.1;100.0
27358;BME280;14831;50.474;7.616;2023-01-25T09:36:58;99600;;;-1.2;100.0
27358;BME280;14831;50.474;7.616;2023-01-25T09:42:05;99580;;;-1.3;100.0
27358;BME280;14831;50.474;7.616;2023-01-25T09:46:59;99600;;;-1.1;100.0
27358;BME280;14831;50.474;7.616;2023-01-25T09:52:02;99600;;;-1.0;100.0
27358;BME280;14831;50.474;7.616;2023-01-25T09:56:58;99600;;;-1.1;100.0
27358;BME280;14831;50.474;7.616;2023-01-25T10:01:59;99590;;;-1.3;100.0
27358;BME280;14831;50.474;7.616;2023-01-25T10:07:00;99590;;;-1.2;100.0
27358;BME280;14831;50.474;7.616;2023-01-25T10:11:58;99580;;;-1.3;100.0
27358;BME280;14831;50.474;7.616;2023-01-25T10:17:01;99570;;;-1.1;100.0
27358;BME280;14831;50.474;7.616;2023-01-25T10:21:59;99560;;;-0.9;100.0
27358;BME280;14831;50.474;7.616;2023-01-25T10:27:01;99550;;;-1.0;100.0
27358;BME280;14831;50.474;7.616;2023-01-25T10:31:59;99560;;;-1.2;100.0
27358;BME280;14831;50.474;7.616;2023-01-25T10:37:00;99550;;;-1.1;100.0
27358;BME280;14831;50.474;7.616;2023-01-25T10:41:59;99540;;;-0.9;100.0
27358;BME280;14831;50.474;7.616;2023-01-25T10:46:59;99530;;;-0.8;100.0
27358;BME280;14831;50.474;7.616;2023-01-25T10:52:09;99520;;;-0.7;100.0
27358;BME280;14831;50.474;7.616;2023-01-25T10:56:58;99510;;;-0.6;100.0
27358;BME280;14831;50.474;7.616;2023-01-25T11:01:59;99520;;;-0.6;100.0
27358;BME280;14831;50.474;7.616;2023-01-25T11:06:58;99510;;;-0.6;100.0
27358;BME280;14831;50.474;7.616;2023-01-25T11:11:59;99510;;;-0.6;100.0
27358;BME280;14831;50.474;7.616;2023-01-25T11:16:59;99500;;;-0.6;100.0
27358;BME280;14831;50.474;7.616;2023-01-25T11:21:59;99490;;;-0.5;100.0
27358;BME280;14831;50.474;7.616;2023-01-25T11:27:16;99480;;;-0.5;100.0
27358;BME280;14831;50.474;7.616;2023-01-25T11:31:58;99480;;;-0.5;100.0
27358;BME280;14831;50.474;7.616;2023-01-25T11:37:04;99480;;;-0.5;100.0
27358;BME280;14831;50.474;7.616;2023-01-25T11:42:02;99470;;;-0.6;100.0
27358;BME280;14831;50.474;7.616;2023-01-25T11:47:00;99460;;;-0.8;100.0
27358;BME280;14831;50.474;7.616;2023-01-25T11:52:01;99450;;;-0.6;100.0
27358;BME280;14831;50.474;7.616;2023-01-25T11:56:59;99450;;;-0.7;100.0
27358;BME280;14831;50.474;7.616;2023-01-25T12:02:02;99440;;;-0.7;100.0
27358;BME280;14831;50.474;7.616;2023-01-25T12:06:58;99440;;;-0.5;100.0
27358;BME280;14831;50.474;7.616;2023-01-25T12:12:03;99420;;;-0.7;100.0
27358;BME280;14831;50.474;7.616;2023-01-25T12:17:02;99410;;;-0.7;100.0
27358;BME280;14831;50.474;7.616;2023-01-25T12:22:03;99390;;;-0.7;100.0
27358;BME280;14831;50.474;7.616;2023-01-25T12:26:59;99390;;;-0.9;100.0
27358;BME280;14831;50.474;7.616;2023-01-25T12:31:59;99380;;;-1.0;100.0
27358;BME280;14831;50.474;7.616;2023-01-25T12:36:59;99370;;;-1.0;100.0
27358;BME280;14831;50.474;7.616;2023-01-25T12:41:59;99350;;;-1.0;100.0
27358;BME280;14831;50.474;7.616;2023-01-25T12:47:00;99360;;;-1.1;100.0
27358;BME280;14831;50.474;7.616;2023-01-25T12:51:59;99340;;;-1.0;100.0
27358;BME280;14831;50.474;7.616;2023-01-25T12:57:02;99320;;;-1.1;100.0
27358;BME280;14831;50.474;7.616;2023-01-25T13:02:01;99320;;;-1.1;100.0
27358;BME280;14831;50.474;7.616;2023-01-25T13:06:59;99310;;;-1.2;100.0
27358;BME280;14831;50.474;7.616;2023-01-25T13:11:58;99300;;;-1.2;100.0
27358;BME280;14831;50.474;7.616;2023-01-25T13:17:30;99300;;;-1.2;100.0
27358;BME280;14831;50.474;7.616;2023-01-25T13:21:58;99290;;;-1.1;100.0
27358;BME280;14831;50.474;7.616;2023-01-25T13:26:59;99280;;;-1.2;100.0
27358;BME280;14831;50.474;7.616;2023-01-25T13:31:58;99270;;;-1.1;100.0
27358;BME280;14831;50.474;7.616;2023-01-25T13:36:58;99250;;;-1.0;100.0
27358;BME280;14831;50.474;7.616;2023-01-25T13:41:58;99250;;;-1.0;100.0
27358;BME280;14831;50.474;7.616;2023-01-25T13:46:59;99240;;;-1.0;100.0
27358;BME280;14831;50.474;7.616;2023-01-25T13:51:58;99240;;;-1.2;100.0
27358;BME280;14831;50.474;7.616;2023-01-25T13:57:02;99240;;;-1.2;100.0
27358;BME280;14831;50.474;7.616;2023-01-25T14:01:58;99220;;;-1.2;100.0
27358;BME280;14831;50.474;7.616;2023-01-25T14:06:58;99200;;;-1.1;100.0
27358;BME280;14831;50.474;7.616;2023-01-25T14:11:59;99200;;;-1.0;100.0
27358;BME280;14831;50.474;7.616;2023-01-25T14:17:00;99190;;;-1.0;100.0
27358;BME280;14831;50.474;7.616;2023-01-25T14:22:30;99180;;;-1.0;100.0
27358;BME280;14831;50.474;7.616;2023-01-25T14:26:58;99180;;;-1.1;100.0
27358;BME280;14831;50.474;7.616;2023-01-25T14:31:58;99180;;;-1.1;100.0
27358;BME280;14831;50.474;7.616;2023-01-25T14:37:09;99170;;;-1.0;100.0
27358;BME280;14831;50.474;7.616;2023-01-25T14:41:58;99170;;;-1.2;100.0
27358;BME280;14831;50.474;7.616;2023-01-25T14:47:29;99170;;;-1.2;100.0
27358;BME280;14831;50.474;7.616;2023-01-25T14:52:01;99160;;;-1.4;100.0
27358;BME280;14831;50.474;7.616;2023-01-25T14:56:59;99150;;;-1.2;100.0
27358;BME280;14831;50.474;7.616;2023-01-25T15:01:59;99160;;;-1.2;100.0
27358;BME280;14831;50.474;7.616;2023-01-25T15:06:58;99150;;;-1.2;100.0
27358;BME280;14831;50.474;7.616;2023-01-25T15:11:59;99150;;;-1.2;100.0
27358;BME280;14831;50.474;7.616;2023-01-25T15:16:58;99150;;;-1.3;100.0
27358;BME280;14831;50.474;7.616;2023-01-25T15:21:59;99140;;;-1.3;100.0
27358;BME280;14831;50.474;7.616;2023-01-25T15:26:58;99150;;;-1.4;100.0
27358;BME280;14831;50.474;7.616;2023-01-25T15:31:58;99140;;;-1.5;100.0
27358;BME280;14831;50.474;7.616;2023-01-25T15:36:58;99130;;;-1.4;100.0
27358;BME280;14831;50.474;7.616;2023-01-25T15:41:58;99120;;;-1.4;100.0
27358;BME280;14831;50.474;7.616;2023-01-25T15:46:58;99100;;;-1.3;100.0
27358;BME280;14831;50.474;7.616;2023-01-25T15:51:58;99120;;;-1.3;100.0
27358;BME280;14831;50.474;7.616;2023-01-25T15:56:58;99100;;;-1.5;100.0
27358;BME280;14831;50.474;7.616;2023-01-25T16:01:58;99100;;;-1.5;100.0
27358;BME280;14831;50.474;7.616;2023-01-25T16:06:58;99100;;;-1.4;100.0
27358;BME280;14831;50.474;7.616;2023-01-25T16:11:59;99100;;;-1.3;100.0
27358;BME280;14831;50.474;7.616;2023-01-25T16:16:59;99100;;;-1.4;100.0
27358;BME280;14831;50.474;7.616;2023-01-25T16:21:58;99090;;;-1.4;100.0
27358;BME280;14831;50.474;7.616;2023-01-25T16:26:58;99090;;;-1.4;100.0
27358;BME280;14831;50.474;7.616;2023-01-25T16:31:58;99090;;;-1.3;100.0
27358;BME280;14831;50.474;7.616;2023-01-25T16:36:58;99090;;;-1.5;100.0
27358;BME280;14831;50.474;7.616;2023-01-25T16:41:58;99080;;;-1.6;100.0
27358;BME280;14831;50.474;7.616;2023-01-25T16:46:58;99080;;;-1.6;100.0
27358;BME280;14831;50.474;7.616;2023-01-25T16:51:58;99090;;;-1.7;100.0
27358;BME280;14831;50.474;7.616;2023-01-25T16:56:58;99090;;;-1.7;100.0
27358;BME280;14831;50.474;7.616;2023-01-25T17:01:58;99080;;;-1.8;100.0
27358;BME280;14831;50.474;7.616;2023-01-25T17:06:58;99080;;;-1.8;100.0
27358;BME280;14831;50.474;7.616;2023-01-25T17:11:58;99080;;;-1.8;100.0
27358;BME280;14831;50.474;7.616;2023-01-25T17:16:58;99070;;;-1.8;100.0
27358;BME280;14831;50.474;7.616;2023-01-25T17:21:58;99070;;;-1.9;100.0
27358;BME280;14831;50.474;7.616;2023-01-25T17:26:58;99070;;;-1.9;100.0
27358;BME280;14831;50.474;7.616;2023-01-25T17:31:58;99060;;;-1.8;100.0
27358;BME280;14831;50.474;7.616;2023-01-25T17:36:58;99060;;;-1.7;100.0
27358;BME280;14831;50.474;7.616;2023-01-25T17:41:58;99050;;;-1.8;100.0
27358;BME280;14831;50.474;7.616;2023-01-25T17:46:58;99040;;;-1.7;100.0
27358;BME280;14831;50.474;7.616;2023-01-25T17:51:58;99040;;;-1.7;100.0
27358;BME280;14831;50.474;7.616;2023-01-25T17:56:58;99040;;;-1.7;100.0
27358;BME280;14831;50.474;7.616;2023-01-25T18:01:58;99030;;;-1.9;100.0
27358;BME280;14831;50.474;7.616;2023-01-25T18:06:58;99030;;;-1.9;100.0
27358;BME280;14831;50.474;7.616;2023-01-25T18:11:58;99030;;;-1.8;100.0
27358;BME280;14831;50.474;7.616;2023-01-25T18:16:58;99010;;;-1.8;100.0
27358;BME280;14831;50.474;7.616;2023-01-25T18:21:58;99010;;;-1.7;100.0
27358;BME280;14831;50.474;7.616;2023-01-25T18:26:59;99000;;;-1.8;100.0
27358;BME280;14831;50.474;7.616;2023-01-25T18:31:58;99000;;;-1.8;100.0
27358;BME280;14831;50.474;7.616;2023-01-25T18:36:58;99000;;;-1.8;100.0
27358;BME280;14831;50.474;7.616;2023-01-25T18:41:58;99000;;;-1.8;100.0
27358;BME280;14831;50.474;7.616;2023-01-25T18:46:58;98990;;;-1.8;100.0
27358;BME280;14831;50.474;7.616;2023-01-25T18:51:58;98980;;;-1.7;100.0
27358;BME280;14831;50.474;7.616;2023-01-25T18:56:58;98990;;;-1.7;100.0
27358;BME280;14831;50.474;7.616;2023-01-25T19:01:58;98980;;;-1.8;100.0
27358;BME280;14831;50.474;7.616;2023-01-25T19:06:58;98970;;;-1.9;100.0
27358;BME280;14831;50.474;7.616;2023-01-25T19:11:58;98960;;;-2.0;100.0
27358;BME280;14831;50.474;7.616;2023-01-25T19:16:58;98950;;;-2.1;100.0
27358;BME280;14831;50.474;7.616;2023-01-25T19:21:58;98960;;;-2.1;100.0
27358;BME280;14831;50.474;7.616;2023-01-25T19:26:58;98950;;;-2.2;100.0
27358;BME280;14831;50.474;7.616;2023-01-25T19:31:58;98960;;;-2.1;100.0
27358;BME280;14831;50.474;7.616;2023-01-25T19:36:58;98970;;;-2.1;100.0
27358;BME280;14831;50.474;7.616;2023-01-25T19:41:58;98960;;;-2.1;100.0
27358;BME280;14831;50.474;7.616;2023-01-25T19:46:58;98960;;;-2.1;100.0
27358;BME280;14831;50.474;7.616;2023-01-25T19:51:58;98950;;;-2.1;100.0
27358;BME280;14831;50.474;7.616;2023-01-25T19:56:58;98940;;;-2.2;100.0
27358;BME280;14831;50.474;7.616;2023-01-25T20:01:58;98930;;;-2.2;100.0
27358;BME280;14831;50.474;7.616;2023-01-25T20:06:58;98920;;;-2.3;100.0
27358;BME280;14831;50.474;7.616;2023-01-25T20:11:58;98920;;;-2.3;100.0
27358;BME280;14831;50.474;7.616;2023-01-25T20:16:58;98920;;;-2.4;100.0
27358;BME280;14831;50.474;7.616;2023-01-25T20:21:58;98910;;;-2.5;100.0
27358;BME280;14831;50.474;7.616;2023-01-25T20:26:58;98910;;;-2.4;100.0
27358;BME280;14831;50.474;7.616;2023-01-25T20:31:58;98910;;;-2.4;100.0
27358;BME280;14831;50.474;7.616;2023-01-25T20:36:58;98890;;;-2.2;100.0
27358;BME280;14831;50.474;7.616;2023-01-25T20:41:58;98890;;;-2.3;100.0
27358;BME280;14831;50.474;7.616;2023-01-25T20:46:58;98890;;;-2.4;100.0
27358;BME280;14831;50.474;7.616;2023-01-25T20:51:58;98870;;;-2.5;100.0
27358;BME280;14831;50.474;7.616;2023-01-25T20:56:58;98860;;;-2.6;100.0
27358;BME280;14831;50.474;7.616;2023-01-25T21:01:58;98860;;;-2.7;100.0
27358;BME280;14831;50.474;7.616;2023-01-25T21:06:58;98860;;;-2.6;100.0
27358;BME280;14831;50.474;7.616;2023-01-25T21:11:58;98860;;;-2.6;100.0
27358;BME280;14831;50.474;7.616;2023-01-25T21:16:58;98850;;;-2.5;100.0
27358;BME280;14831;50.474;7.616;2023-01-25T21:21:58;98830;;;-2.4;100.0
27358;BME280;14831;50.474;7.616;2023-01-25T21:26:58;98820;;;-2.3;100.0
27358;BME280;14831;50.474;7.616;2023-01-25T21:31:58;98830;;;-2.4;100.0
27358;BME280;14831;50.474;7.616;2023-01-25T21:36:58;98830;;;-2.5;100.0
27358;BME280;14831;50.474;7.616;2023-01-25T21:41:58;98830;;;-2.5;100.0
27358;BME280;14831;50.474;7.616;2023-01-25T21:46:58;98830;;;-2.5;100.0
27358;BME280;14831;50.474;7.616;2023-01-25T21:51:59;98820;;;-2.4;100.0
27358;BME280;14831;50.474;7.616;2023-01-25T21:56:59;98810;;;-2.4;100.0
27358;BME280;14831;50.474;7.616;2023-01-25T22:01:58;98800;;;-2.4;100.0
27358;BME280;14831;50.474;7.616;2023-01-25T22:06:58;98800;;;-2.3;100.0
27358;BME280;14831;50.474;7.616;2023-01-25T22:11:58;98800;;;-2.3;100.0
27358;BME280;14831;50.474;7.616;2023-01-25T22:16:59;98790;;;-2.4;100.0
27358;BME280;14831;50.474;7.616;2023-01-25T22:21:58;98780;;;-2.3;100.0
27358;BME280;14831;50.474;7.616;2023-01-25T22:27:02;98770;;;-2.4;100.0
27358;BME280;14831;50.474;7.616;2023-01-25T22:31:58;98760;;;-2.6;100.0
27358;BME280;14831;50.474;7.616;2023-01-25T22:36:58;98760;;;-2.6;100.0
27358;BME280;14831;50.474;7.616;2023-01-25T22:41:58;98770;;;-2.7;100.0
27358;BME280;14831;50.474;7.616;2023-01-25T22:46:58;98760;;;-2.8;100.0
27358;BME280;14831;50.474;7.616;2023-01-25T22:51:58;98740;;;-2.8;100.0
27358;BME280;14831;50.474;7.616;2023-01-25T22:56:58;98750;;;-2.8;100.0
27358;BME280;14831;50.474;7.616;2023-01-25T23:01:58;98730;;;-2.8;100.0
27358;BME280;14831;50.474;7.616;2023-01-25T23:06:58;98750;;;-2.7;100.0
27358;BME280;14831;50.474;7.616;2023-01-25T23:11:58;98740;;;-2.6;100.0
27358;BME280;14831;50.474;7.616;2023-01-25T23:16:58;98740;;;-2.6;100.0
27358;BME280;14831;50.474;7.616;2023-01-25T23:21:58;98720;;;-2.6;100.0
27358;BME280;14831;50.474;7.616;2023-01-25T23:26:58;98730;;;-2.8;100.0
27358;BME280;14831;50.474;7.616;2023-01-25T23:31:58;98720;;;-2.8;100.0
27358;BME280;14831;50.474;7.616;2023-01-25T23:36:58;98720;;;-2.8;100.0
27358;BME280;14831;50.474;7.616;2023-01-25T23:41:58;98720;;;-2.8;100.0
27358;BME280;14831;50.474;7.616;2023-01-25T23:46:58;98730;;;-2.8;100.0
27358;BME280;14831;50.474;7.616;2023-01-25T23:51:58;98720;;;-2.8;100.0
27358;BME280;14831;50.474;7.616;2023-01-25T23:56:58;98710;;;-2.8;100.0
